Huvudsida
METAR-TAF:

METAR-TAF

Flygplatser :

Stockholm-Västerås flygplats

Västerås, Sverige

latitud: 59-35N, longitud: 016-38E, höjd: 6 m

Aktuellt väderrapport

Denna rapport gjordes för 28 minuter sedan, klockan 23:20 UTC
Vind 4 kt från nord
Temperatur -10°C
Fuktighet 85%
Tryck 1000 hPa
Sikt 10 km eller mer

METAR: ESOW 292320Z AUTO 01004KT 9999 NCD M10/M12 Q1000

Tid: 00:48 (23:48 UTC)

Väderprognos

Denna rapport gjordes för 9 timmar och 18 minuter sedan, klockan 14:30 UTC
Prognos gäller från 29 kl. 15 UTC till 29 kl. 17 UTC
Vind 5 kt från nord/nordväst
Sikt 10 km eller mer
Inga moln under 1 500 m eller inga cumulonimbus

TAF: ESOW 291430Z 2915/2917 34005KT CAVOK

Aktuella väderrapporter och prognoser från 4000 flygplatser (METAR- och TAF-rapporter).

De tillgängliga stationerna syns som gula och röda prickar på kartan.

För musen över prickarna för att se namnen på stationerna.

Klicka sedan för att få väderrapporter och prognoser.

För att ändra kartan: Klicka på de gröna knapparna med ett svart kors på för att zooma in; den gröna knappen med ett streck på för att zooma ut; eller på de gröna pilarna för angränsande kartor.


METAR-TAF: